<?xml version="1.0" encoding="UTF-8"?>
<gpx xmlns="http://www.topografix.com/GPX/1/1" xmlns:xsi="http://www.w3.org/2001/XMLSchema-instance" version="1.1" xsi:schemaLocation="http://www.topografix.com/GPX/1/1 http://www.topografix.com/GPX/1/1/gpx.xsd">
  <metadata>
    <name>Napa Valley Triathlon 2023 - Olympic Aquabike</name>
  </metadata>
  <trk>
    <name>Napa Valley Triathlon 2023 - Olympic Aquabike</name>
    <trkseg>
      <trkpt lat="38.623807" lon="-122.287235">
        <ele>134.577507</ele>
        <time>2024-10-26T09:30:00.000Z</time>
      </trkpt>
      <trkpt lat="38.624102" lon="-122.287315">
        <ele>134.577498</ele>
        <time>2024-10-26T09:30:03.000Z</time>
      </trkpt>
      <trkpt lat="38.624417" lon="-122.287381">
        <ele>134.577501</ele>
        <time>2024-10-26T09:30:07.000Z</time>
      </trkpt>
      <trkpt lat="38.624708" lon="-122.28751">
        <ele>134.602574</ele>
        <time>2024-10-26T09:30:10.000Z</time>
      </trkpt>
      <trkpt lat="38.624823" lon="-122.287553">
        <ele>134.698263</ele>
        <time>2024-10-26T09:30:11.000Z</time>
      </trkpt>
      <trkpt lat="38.625083" lon="-122.287769">
        <ele>134.932366</ele>
        <time>2024-10-26T09:30:14.000Z</time>
      </trkpt>
      <trkpt lat="38.625527" lon="-122.288435">
        <ele>135.460419</ele>
        <time>2024-10-26T09:30:22.000Z</time>
      </trkpt>
      <trkpt lat="38.625843" lon="-122.288795">
        <ele>135.788565</ele>
        <time>2024-10-26T09:30:27.000Z</time>
      </trkpt>
      <trkpt lat="38.625993" lon="-122.288909">
        <ele>135.929252</ele>
        <time>2024-10-26T09:30:29.000Z</time>
      </trkpt>
      <trkpt lat="38.62607" lon="-122.288951">
        <ele>136.006298</ele>
        <time>2024-10-26T09:30:30.000Z</time>
      </trkpt>
      <trkpt lat="38.626161" lon="-122.289016">
        <ele>136.197641</ele>
        <time>2024-10-26T09:30:31.000Z</time>
      </trkpt>
      <trkpt lat="38.626241" lon="-122.28906">
        <ele>136.361645</ele>
        <time>2024-10-26T09:30:32.000Z</time>
      </trkpt>
      <trkpt lat="38.626421" lon="-122.289256">
        <ele>136.789789</ele>
        <time>2024-10-26T09:30:35.000Z</time>
      </trkpt>
      <trkpt lat="38.626315" lon="-122.289517">
        <ele>137.184696</ele>
        <time>2024-10-26T09:30:38.000Z</time>
      </trkpt>
      <trkpt lat="38.626185" lon="-122.289741">
        <ele>137.595504</ele>
        <time>2024-10-26T09:30:40.000Z</time>
      </trkpt>
      <trkpt lat="38.625939" lon="-122.290059">
        <ele>138.240344</ele>
        <time>2024-10-26T09:30:44.000Z</time>
      </trkpt>
      <trkpt lat="38.625727" lon="-122.29022">
        <ele>138.683644</ele>
        <time>2024-10-26T09:30:47.000Z</time>
      </trkpt>
      <trkpt lat="38.625563" lon="-122.290275">
        <ele>138.97592</ele>
        <time>2024-10-26T09:30:49.000Z</time>
      </trkpt>
      <trkpt lat="38.62528" lon="-122.290316">
        <ele>139.496646</ele>
        <time>2024-10-26T09:30:52.000Z</time>
      </trkpt>
      <trkpt lat="38.623986" lon="-122.290275">
        <ele>141.912593</ele>
        <time>2024-10-26T09:31:06.000Z</time>
      </trkpt>
      <trkpt lat="38.623751" lon="-122.290241">
        <ele>142.345155</ele>
        <time>2024-10-26T09:31:09.000Z</time>
      </trkpt>
      <trkpt lat="38.623507" lon="-122.290138">
        <ele>142.798219</ele>
        <time>2024-10-26T09:31:12.000Z</time>
      </trkpt>
      <trkpt lat="38.622322" lon="-122.289503">
        <ele>144.835391</ele>
        <time>2024-10-26T09:31:26.000Z</time>
      </trkpt>
      <trkpt lat="38.622118" lon="-122.28944">
        <ele>145.183007</ele>
        <time>2024-10-26T09:31:28.000Z</time>
      </trkpt>
      <trkpt lat="38.621718" lon="-122.289438">
        <ele>145.90263</ele>
        <time>2024-10-26T09:31:32.000Z</time>
      </trkpt>
      <trkpt lat="38.620311" lon="-122.289865">
        <ele>148.828208</ele>
        <time>2024-10-26T09:31:48.000Z</time>
      </trkpt>
      <trkpt lat="38.620047" lon="-122.289923">
        <ele>148.877433</ele>
        <time>2024-10-26T09:31:51.000Z</time>
      </trkpt>
      <trkpt lat="38.61984" lon="-122.289899">
        <ele>148.595235</ele>
        <time>2024-10-26T09:31:53.000Z</time>
      </trkpt>
      <trkpt lat="38.619567" lon="-122.289786">
        <ele>148.210021</ele>
        <time>2024-10-26T09:31:56.000Z</time>
      </trkpt>
      <trkpt lat="38.618937" lon="-122.289377">
        <ele>147.205904</ele>
        <time>2024-10-26T09:32:04.000Z</time>
      </trkpt>
      <trkpt lat="38.618702" lon="-122.289259">
        <ele>146.851541</ele>
        <time>2024-10-26T09:32:07.000Z</time>
      </trkpt>
      <trkpt lat="38.618501" lon="-122.289181">
        <ele>146.570146</ele>
        <time>2024-10-26T09:32:09.000Z</time>
      </trkpt>
      <trkpt lat="38.618284" lon="-122.289157">
        <ele>146.732445</ele>
        <time>2024-10-26T09:32:11.000Z</time>
      </trkpt>
      <trkpt lat="38.618035" lon="-122.28919">
        <ele>146.913363</ele>
        <time>2024-10-26T09:32:14.000Z</time>
      </trkpt>
      <trkpt lat="38.617909" lon="-122.289215">
        <ele>147.009335</ele>
        <time>2024-10-26T09:32:15.000Z</time>
      </trkpt>
      <trkpt lat="38.615778" lon="-122.289516">
        <ele>152.013244</ele>
        <time>2024-10-26T09:32:39.000Z</time>
      </trkpt>
      <trkpt lat="38.615473" lon="-122.289511">
        <ele>153.326173</ele>
        <time>2024-10-26T09:32:42.000Z</time>
      </trkpt>
      <trkpt lat="38.615206" lon="-122.289344">
        <ele>154.660902</ele>
        <time>2024-10-26T09:32:45.000Z</time>
      </trkpt>
      <trkpt lat="38.61494" lon="-122.288978">
        <ele>156.582736</ele>
        <time>2024-10-26T09:32:49.000Z</time>
      </trkpt>
      <trkpt lat="38.614314" lon="-122.287135">
        <ele>165.650458</ele>
        <time>2024-10-26T09:33:06.000Z</time>
      </trkpt>
      <trkpt lat="38.613588" lon="-122.285962">
        <ele>169.526897</ele>
        <time>2024-10-26T09:33:19.000Z</time>
      </trkpt>
      <trkpt lat="38.613168" lon="-122.284327">
        <ele>173.747276</ele>
        <time>2024-10-26T09:33:34.000Z</time>
      </trkpt>
      <trkpt lat="38.613025" lon="-122.283987">
        <ele>174.706835</ele>
        <time>2024-10-26T09:33:37.000Z</time>
      </trkpt>
      <trkpt lat="38.612584" lon="-122.283498">
        <ele>176.579129</ele>
        <time>2024-10-26T09:33:43.000Z</time>
      </trkpt>
      <trkpt lat="38.612474" lon="-122.283454">
        <ele>177.000072</ele>
        <time>2024-10-26T09:33:44.000Z</time>
      </trkpt>
      <trkpt lat="38.612218" lon="-122.283343">
        <ele>178.067056</ele>
        <time>2024-10-26T09:33:47.000Z</time>
      </trkpt>
      <trkpt lat="38.611929" lon="-122.283281">
        <ele>179.586732</ele>
        <time>2024-10-26T09:33:50.000Z</time>
      </trkpt>
      <trkpt lat="38.610513" lon="-122.282974">
        <ele>186.988964</ele>
        <time>2024-10-26T09:34:06.000Z</time>
      </trkpt>
      <trkpt lat="38.610344" lon="-122.282947">
        <ele>187.311569</ele>
        <time>2024-10-26T09:34:08.000Z</time>
      </trkpt>
      <trkpt lat="38.60864" lon="-122.282595">
        <ele>190.312706</ele>
        <time>2024-10-26T09:34:27.000Z</time>
      </trkpt>
      <trkpt lat="38.608174" lon="-122.282457">
        <ele>190.237671</ele>
        <time>2024-10-26T09:34:32.000Z</time>
      </trkpt>
      <trkpt lat="38.607767" lon="-122.282182">
        <ele>190.166373</ele>
        <time>2024-10-26T09:34:37.000Z</time>
      </trkpt>
      <trkpt lat="38.605602" lon="-122.280288">
        <ele>187.484448</ele>
        <time>2024-10-26T09:35:06.000Z</time>
      </trkpt>
      <trkpt lat="38.605313" lon="-122.279986">
        <ele>185.433086</ele>
        <time>2024-10-26T09:35:10.000Z</time>
      </trkpt>
      <trkpt lat="38.604624" lon="-122.27897">
        <ele>179.687834</ele>
        <time>2024-10-26T09:35:22.000Z</time>
      </trkpt>
      <trkpt lat="38.60424" lon="-122.278566">
        <ele>177.618694</ele>
        <time>2024-10-26T09:35:28.000Z</time>
      </trkpt>
      <trkpt lat="38.603775" lon="-122.278304">
        <ele>176.267752</ele>
        <time>2024-10-26T09:35:34.000Z</time>
      </trkpt>
      <trkpt lat="38.602778" lon="-122.27794">
        <ele>173.496895</ele>
        <time>2024-10-26T09:35:46.000Z</time>
      </trkpt>
      <trkpt lat="38.602462" lon="-122.277785">
        <ele>174.526257</ele>
        <time>2024-10-26T09:35:50.000Z</time>
      </trkpt>
      <trkpt lat="38.602116" lon="-122.277403">
        <ele>176.240538</ele>
        <time>2024-10-26T09:35:55.000Z</time>
      </trkpt>
      <trkpt lat="38.601895" lon="-122.27689">
        <ele>177.931053</ele>
        <time>2024-10-26T09:36:00.000Z</time>
      </trkpt>
      <trkpt lat="38.601743" lon="-122.276046">
        <ele>180.483196</ele>
        <time>2024-10-26T09:36:08.000Z</time>
      </trkpt>
      <trkpt lat="38.601584" lon="-122.275532">
        <ele>182.289145</ele>
        <time>2024-10-26T09:36:13.000Z</time>
      </trkpt>
      <trkpt lat="38.6008" lon="-122.273739">
        <ele>188.407227</ele>
        <time>2024-10-26T09:36:31.000Z</time>
      </trkpt>
      <trkpt lat="38.600512" lon="-122.273353">
        <ele>189.434429</ele>
        <time>2024-10-26T09:36:36.000Z</time>
      </trkpt>
      <trkpt lat="38.600177" lon="-122.273081">
        <ele>190.410438</ele>
        <time>2024-10-26T09:36:40.000Z</time>
      </trkpt>
      <trkpt lat="38.598882" lon="-122.272519">
        <ele>192.695261</ele>
        <time>2024-10-26T09:36:55.000Z</time>
      </trkpt>
      <trkpt lat="38.59843" lon="-122.272224">
        <ele>193.155552</ele>
        <time>2024-10-26T09:37:01.000Z</time>
      </trkpt>
      <trkpt lat="38.596211" lon="-122.270456">
        <ele>193.613566</ele>
        <time>2024-10-26T09:37:30.000Z</time>
      </trkpt>
      <trkpt lat="38.595902" lon="-122.270349">
        <ele>193.709547</ele>
        <time>2024-10-26T09:37:34.000Z</time>
      </trkpt>
      <trkpt lat="38.59538" lon="-122.270422">
        <ele>193.863629</ele>
        <time>2024-10-26T09:37:40.000Z</time>
      </trkpt>
      <trkpt lat="38.594787" lon="-122.270482">
        <ele>194.04349</ele>
        <time>2024-10-26T09:37:47.000Z</time>
      </trkpt>
      <trkpt lat="38.594472" lon="-122.270372">
        <ele>194.278349</ele>
        <time>2024-10-26T09:37:51.000Z</time>
      </trkpt>
      <trkpt lat="38.592872" lon="-122.269304">
        <ele>195.38244</ele>
        <time>2024-10-26T09:38:11.000Z</time>
      </trkpt>
      <trkpt lat="38.592677" lon="-122.26908">
        <ele>194.961326</ele>
        <time>2024-10-26T09:38:14.000Z</time>
      </trkpt>
      <trkpt lat="38.592523" lon="-122.268548">
        <ele>194.258447</ele>
        <time>2024-10-26T09:38:19.000Z</time>
      </trkpt>
      <trkpt lat="38.592575" lon="-122.268028">
        <ele>193.587198</ele>
        <time>2024-10-26T09:38:24.000Z</time>
      </trkpt>
      <trkpt lat="38.592835" lon="-122.2665">
        <ele>189.82277</ele>
        <time>2024-10-26T09:38:38.000Z</time>
      </trkpt>
      <trkpt lat="38.592834" lon="-122.266136">
        <ele>188.667888</ele>
        <time>2024-10-26T09:38:41.000Z</time>
      </trkpt>
      <trkpt lat="38.592786" lon="-122.265701">
        <ele>187.305509</ele>
        <time>2024-10-26T09:38:45.000Z</time>
      </trkpt>
      <trkpt lat="38.592655" lon="-122.265355">
        <ele>186.088377</ele>
        <time>2024-10-26T09:38:48.000Z</time>
      </trkpt>
      <trkpt lat="38.591048" lon="-122.262189">
        <ele>176.422918</ele>
        <time>2024-10-26T09:39:21.000Z</time>
      </trkpt>
      <trkpt lat="38.590701" lon="-122.261751">
        <ele>175.147725</ele>
        <time>2024-10-26T09:39:26.000Z</time>
      </trkpt>
      <trkpt lat="38.589976" lon="-122.261135">
        <ele>172.60649</ele>
        <time>2024-10-26T09:39:36.000Z</time>
      </trkpt>
      <trkpt lat="38.589619" lon="-122.260678">
        <ele>171.102449</ele>
        <time>2024-10-26T09:39:42.000Z</time>
      </trkpt>
      <trkpt lat="38.589384" lon="-122.260211">
        <ele>169.855291</ele>
        <time>2024-10-26T09:39:47.000Z</time>
      </trkpt>
      <trkpt lat="38.588596" lon="-122.257271">
        <ele>159.625166</ele>
        <time>2024-10-26T09:40:14.000Z</time>
      </trkpt>
      <trkpt lat="38.588341" lon="-122.256804">
        <ele>158.742757</ele>
        <time>2024-10-26T09:40:19.000Z</time>
      </trkpt>
      <trkpt lat="38.588188" lon="-122.256578">
        <ele>158.268884</ele>
        <time>2024-10-26T09:40:22.000Z</time>
      </trkpt>
      <trkpt lat="38.587903" lon="-122.256333">
        <ele>157.620293</ele>
        <time>2024-10-26T09:40:26.000Z</time>
      </trkpt>
      <trkpt lat="38.587762" lon="-122.256244">
        <ele>157.291668</ele>
        <time>2024-10-26T09:40:28.000Z</time>
      </trkpt>
      <trkpt lat="38.587755" lon="-122.256237">
        <ele>157.274211</ele>
        <time>2024-10-26T09:40:28.000Z</time>
      </trkpt>
      <trkpt lat="38.585563" lon="-122.254926">
        <ele>159.398865</ele>
        <time>2024-10-26T09:40:55.000Z</time>
      </trkpt>
      <trkpt lat="38.584393" lon="-122.253908">
        <ele>159.117713</ele>
        <time>2024-10-26T09:41:11.000Z</time>
      </trkpt>
      <trkpt lat="38.583938" lon="-122.253671">
        <ele>157.824922</ele>
        <time>2024-10-26T09:41:16.000Z</time>
      </trkpt>
      <trkpt lat="38.583698" lon="-122.253632">
        <ele>157.197349</ele>
        <time>2024-10-26T09:41:19.000Z</time>
      </trkpt>
      <trkpt lat="38.583354" lon="-122.253731">
        <ele>156.267816</ele>
        <time>2024-10-26T09:41:23.000Z</time>
      </trkpt>
      <trkpt lat="38.582299" lon="-122.254406">
        <ele>153.29868</ele>
        <time>2024-10-26T09:41:36.000Z</time>
      </trkpt>
      <trkpt lat="38.582009" lon="-122.254502">
        <ele>152.605748</ele>
        <time>2024-10-26T09:41:39.000Z</time>
      </trkpt>
      <trkpt lat="38.581429" lon="-122.254436">
        <ele>151.285434</ele>
        <time>2024-10-26T09:41:45.000Z</time>
      </trkpt>
      <trkpt lat="38.580428" lon="-122.253819">
        <ele>149.499939</ele>
        <time>2024-10-26T09:41:57.000Z</time>
      </trkpt>
      <trkpt lat="38.580132" lon="-122.253636">
        <ele>149.142011</ele>
        <time>2024-10-26T09:42:01.000Z</time>
      </trkpt>
      <trkpt lat="38.57978" lon="-122.253504">
        <ele>148.725465</ele>
        <time>2024-10-26T09:42:05.000Z</time>
      </trkpt>
      <trkpt lat="38.579444" lon="-122.253516">
        <ele>148.36608</ele>
        <time>2024-10-26T09:42:09.000Z</time>
      </trkpt>
      <trkpt lat="38.578742" lon="-122.253998">
        <ele>149.077837</ele>
        <time>2024-10-26T09:42:18.000Z</time>
      </trkpt>
      <trkpt lat="38.578479" lon="-122.254149">
        <ele>149.431439</ele>
        <time>2024-10-26T09:42:21.000Z</time>
      </trkpt>
      <trkpt lat="38.578256" lon="-122.254186">
        <ele>149.72738</ele>
        <time>2024-10-26T09:42:24.000Z</time>
      </trkpt>
      <trkpt lat="38.57803" lon="-122.254091">
        <ele>150.030627</ele>
        <time>2024-10-26T09:42:27.000Z</time>
      </trkpt>
      <trkpt lat="38.577745" lon="-122.253682">
        <ele>150.541854</ele>
        <time>2024-10-26T09:42:32.000Z</time>
      </trkpt>
      <trkpt lat="38.577687" lon="-122.25337">
        <ele>150.75196</ele>
        <time>2024-10-26T09:42:35.000Z</time>
      </trkpt>
      <trkpt lat="38.577821" lon="-122.250908">
        <ele>151.846225</ele>
        <time>2024-10-26T09:42:56.000Z</time>
      </trkpt>
      <trkpt lat="38.577847" lon="-122.250023">
        <ele>151.604661</ele>
        <time>2024-10-26T09:43:04.000Z</time>
      </trkpt>
      <trkpt lat="38.577641" lon="-122.249632">
        <ele>151.479717</ele>
        <time>2024-10-26T09:43:08.000Z</time>
      </trkpt>
      <trkpt lat="38.577269" lon="-122.249273">
        <ele>151.22379</ele>
        <time>2024-10-26T09:43:13.000Z</time>
      </trkpt>
      <trkpt lat="38.577089" lon="-122.248957">
        <ele>150.922341</ele>
        <time>2024-10-26T09:43:16.000Z</time>
      </trkpt>
      <trkpt lat="38.576871" lon="-122.247372">
        <ele>149.690924</ele>
        <time>2024-10-26T09:43:30.000Z</time>
      </trkpt>
      <trkpt lat="38.57664" lon="-122.246865">
        <ele>149.296832</ele>
        <time>2024-10-26T09:43:35.000Z</time>
      </trkpt>
      <trkpt lat="38.576008" lon="-122.245913">
        <ele>148.493478</ele>
        <time>2024-10-26T09:43:46.000Z</time>
      </trkpt>
      <trkpt lat="38.575859" lon="-122.245688">
        <ele>148.301229</ele>
        <time>2024-10-26T09:43:49.000Z</time>
      </trkpt>
      <trkpt lat="38.575539" lon="-122.245407">
        <ele>148.390013</ele>
        <time>2024-10-26T09:43:53.000Z</time>
      </trkpt>
      <trkpt lat="38.574478" lon="-122.244773">
        <ele>149.954142</ele>
        <time>2024-10-26T09:44:06.000Z</time>
      </trkpt>
      <trkpt lat="38.574336" lon="-122.24471">
        <ele>150.152293</ele>
        <time>2024-10-26T09:44:08.000Z</time>
      </trkpt>
      <trkpt lat="38.573961" lon="-122.244469">
        <ele>150.884386</ele>
        <time>2024-10-26T09:44:13.000Z</time>
      </trkpt>
      <trkpt lat="38.57348" lon="-122.24429">
        <ele>152.284754</ele>
        <time>2024-10-26T09:44:19.000Z</time>
      </trkpt>
      <trkpt lat="38.572255" lon="-122.244025">
        <ele>155.556012</ele>
        <time>2024-10-26T09:44:33.000Z</time>
      </trkpt>
      <trkpt lat="38.571939" lon="-122.24396">
        <ele>155.977408</ele>
        <time>2024-10-26T09:44:37.000Z</time>
      </trkpt>
      <trkpt lat="38.571604" lon="-122.243723">
        <ele>156.467377</ele>
        <time>2024-10-26T09:44:41.000Z</time>
      </trkpt>
      <trkpt lat="38.571358" lon="-122.243406">
        <ele>156.920976</ele>
        <time>2024-10-26T09:44:45.000Z</time>
      </trkpt>
      <trkpt lat="38.570845" lon="-122.24224">
        <ele>157.318289</ele>
        <time>2024-10-26T09:44:57.000Z</time>
      </trkpt>
      <trkpt lat="38.570576" lon="-122.241913">
        <ele>156.827526</ele>
        <time>2024-10-26T09:45:01.000Z</time>
      </trkpt>
      <trkpt lat="38.57028" lon="-122.241743">
        <ele>156.389319</ele>
        <time>2024-10-26T09:45:05.000Z</time>
      </trkpt>
      <trkpt lat="38.569986" lon="-122.24171">
        <ele>155.990832</ele>
        <time>2024-10-26T09:45:08.000Z</time>
      </trkpt>
      <trkpt lat="38.569428" lon="-122.241801">
        <ele>155.336533</ele>
        <time>2024-10-26T09:45:14.000Z</time>
      </trkpt>
      <trkpt lat="38.569091" lon="-122.241768">
        <ele>155.137028</ele>
        <time>2024-10-26T09:45:18.000Z</time>
      </trkpt>
      <trkpt lat="38.568668" lon="-122.241533">
        <ele>154.861577</ele>
        <time>2024-10-26T09:45:23.000Z</time>
      </trkpt>
      <trkpt lat="38.567284" lon="-122.24038">
        <ele>155.680681</ele>
        <time>2024-10-26T09:45:41.000Z</time>
      </trkpt>
      <trkpt lat="38.566902" lon="-122.239971">
        <ele>156.572198</ele>
        <time>2024-10-26T09:45:47.000Z</time>
      </trkpt>
      <trkpt lat="38.565832" lon="-122.238398">
        <ele>159.620038</ele>
        <time>2024-10-26T09:46:05.000Z</time>
      </trkpt>
      <trkpt lat="38.565649" lon="-122.238157">
        <ele>160.133194</ele>
        <time>2024-10-26T09:46:08.000Z</time>
      </trkpt>
      <trkpt lat="38.565452" lon="-122.237954">
        <ele>160.602339</ele>
        <time>2024-10-26T09:46:11.000Z</time>
      </trkpt>
      <trkpt lat="38.563727" lon="-122.236184">
        <ele>157.767549</ele>
        <time>2024-10-26T09:46:36.000Z</time>
      </trkpt>
      <trkpt lat="38.563396" lon="-122.235984">
        <ele>156.762048</ele>
        <time>2024-10-26T09:46:40.000Z</time>
      </trkpt>
      <trkpt lat="38.562248" lon="-122.235803">
        <ele>153.443457</ele>
        <time>2024-10-26T09:46:53.000Z</time>
      </trkpt>
      <trkpt lat="38.561817" lon="-122.235666">
        <ele>152.373577</ele>
        <time>2024-10-26T09:46:58.000Z</time>
      </trkpt>
      <trkpt lat="38.561244" lon="-122.235279">
        <ele>150.733551</ele>
        <time>2024-10-26T09:47:05.000Z</time>
      </trkpt>
      <trkpt lat="38.560786" lon="-122.235072">
        <ele>149.54344</ele>
        <time>2024-10-26T09:47:10.000Z</time>
      </trkpt>
      <trkpt lat="38.560005" lon="-122.234922">
        <ele>147.904656</ele>
        <time>2024-10-26T09:47:19.000Z</time>
      </trkpt>
      <trkpt lat="38.559573" lon="-122.234798">
        <ele>147.062451</ele>
        <time>2024-10-26T09:47:24.000Z</time>
      </trkpt>
      <trkpt lat="38.559304" lon="-122.234681">
        <ele>146.5515</ele>
        <time>2024-10-26T09:47:27.000Z</time>
      </trkpt>
      <trkpt lat="38.557288" lon="-122.233277">
        <ele>143.012253</ele>
        <time>2024-10-26T09:47:53.000Z</time>
      </trkpt>
      <trkpt lat="38.556873" lon="-122.233065">
        <ele>143.074121</ele>
        <time>2024-10-26T09:47:58.000Z</time>
      </trkpt>
      <trkpt lat="38.555609" lon="-122.23259">
        <ele>143.502194</ele>
        <time>2024-10-26T09:48:13.000Z</time>
      </trkpt>
      <trkpt lat="38.555051" lon="-122.232208">
        <ele>143.959231</ele>
        <time>2024-10-26T09:48:20.000Z</time>
      </trkpt>
      <trkpt lat="38.554364" lon="-122.231743">
        <ele>144.57955</ele>
        <time>2024-10-26T09:48:29.000Z</time>
      </trkpt>
      <trkpt lat="38.553921" lon="-122.231502">
        <ele>144.956442</ele>
        <time>2024-10-26T09:48:34.000Z</time>
      </trkpt>
      <trkpt lat="38.553377" lon="-122.231446">
        <ele>145.426671</ele>
        <time>2024-10-26T09:48:40.000Z</time>
      </trkpt>
      <trkpt lat="38.551593" lon="-122.231457">
        <ele>145.93447</ele>
        <time>2024-10-26T09:49:00.000Z</time>
      </trkpt>
      <trkpt lat="38.551242" lon="-122.231591">
        <ele>145.548271</ele>
        <time>2024-10-26T09:49:04.000Z</time>
      </trkpt>
      <trkpt lat="38.551173" lon="-122.231633">
        <ele>145.47434</ele>
        <time>2024-10-26T09:49:05.000Z</time>
      </trkpt>
      <trkpt lat="38.550942" lon="-122.231808">
        <ele>145.190181</ele>
        <time>2024-10-26T09:49:08.000Z</time>
      </trkpt>
      <trkpt lat="38.550682" lon="-122.232171">
        <ele>144.781799</ele>
        <time>2024-10-26T09:49:12.000Z</time>
      </trkpt>
      <trkpt lat="38.550592" lon="-122.23234">
        <ele>144.617786</ele>
        <time>2024-10-26T09:49:14.000Z</time>
      </trkpt>
      <trkpt lat="38.549631" lon="-122.234122">
        <ele>142.001571</ele>
        <time>2024-10-26T09:49:33.000Z</time>
      </trkpt>
      <trkpt lat="38.549383" lon="-122.234467">
        <ele>142.319603</ele>
        <time>2024-10-26T09:49:37.000Z</time>
      </trkpt>
      <trkpt lat="38.548595" lon="-122.235081">
        <ele>144.001644</ele>
        <time>2024-10-26T09:49:47.000Z</time>
      </trkpt>
      <trkpt lat="38.547784" lon="-122.235608">
        <ele>146.006624</ele>
        <time>2024-10-26T09:49:57.000Z</time>
      </trkpt>
      <trkpt lat="38.547342" lon="-122.235762">
        <ele>147.365998</ele>
        <time>2024-10-26T09:50:02.000Z</time>
      </trkpt>
      <trkpt lat="38.546996" lon="-122.235763">
        <ele>148.370229</ele>
        <time>2024-10-26T09:50:06.000Z</time>
      </trkpt>
      <trkpt lat="38.546755" lon="-122.235658">
        <ele>149.13514</ele>
        <time>2024-10-26T09:50:09.000Z</time>
      </trkpt>
      <trkpt lat="38.546254" lon="-122.235341">
        <ele>150.869251</ele>
        <time>2024-10-26T09:50:15.000Z</time>
      </trkpt>
      <trkpt lat="38.545825" lon="-122.235194">
        <ele>152.554849</ele>
        <time>2024-10-26T09:50:20.000Z</time>
      </trkpt>
      <trkpt lat="38.544909" lon="-122.235287">
        <ele>155.97281</ele>
        <time>2024-10-26T09:50:30.000Z</time>
      </trkpt>
      <trkpt lat="38.544451" lon="-122.23542">
        <ele>157.520639</ele>
        <time>2024-10-26T09:50:35.000Z</time>
      </trkpt>
      <trkpt lat="38.544286" lon="-122.235556">
        <ele>157.969905</ele>
        <time>2024-10-26T09:50:37.000Z</time>
      </trkpt>
      <trkpt lat="38.542225" lon="-122.238124">
        <ele>165.673971</ele>
        <time>2024-10-26T09:51:09.000Z</time>
      </trkpt>
      <trkpt lat="38.54215" lon="-122.238164">
        <ele>165.936148</ele>
        <time>2024-10-26T09:51:10.000Z</time>
      </trkpt>
      <trkpt lat="38.541908" lon="-122.238299">
        <ele>166.763981</ele>
        <time>2024-10-26T09:51:13.000Z</time>
      </trkpt>
      <trkpt lat="38.541677" lon="-122.238363">
        <ele>168.93598</ele>
        <time>2024-10-26T09:51:16.000Z</time>
      </trkpt>
      <trkpt lat="38.541302" lon="-122.238425">
        <ele>172.618456</ele>
        <time>2024-10-26T09:51:20.000Z</time>
      </trkpt>
      <trkpt lat="38.541156" lon="-122.238413">
        <ele>174.111444</ele>
        <time>2024-10-26T09:51:22.000Z</time>
      </trkpt>
      <trkpt lat="38.541038" lon="-122.2384">
        <ele>175.178681</ele>
        <time>2024-10-26T09:51:23.000Z</time>
      </trkpt>
      <trkpt lat="38.540805" lon="-122.238229">
        <ele>177.782434</ele>
        <time>2024-10-26T09:51:26.000Z</time>
      </trkpt>
      <trkpt lat="38.540617" lon="-122.237805">
        <ele>181.591523</ele>
        <time>2024-10-26T09:51:30.000Z</time>
      </trkpt>
      <trkpt lat="38.540196" lon="-122.236007">
        <ele>194.003004</ele>
        <time>2024-10-26T09:51:46.000Z</time>
      </trkpt>
      <trkpt lat="38.540036" lon="-122.235696">
        <ele>196.393435</ele>
        <time>2024-10-26T09:51:49.000Z</time>
      </trkpt>
      <trkpt lat="38.539885" lon="-122.23555">
        <ele>197.854168</ele>
        <time>2024-10-26T09:51:51.000Z</time>
      </trkpt>
      <trkpt lat="38.539665" lon="-122.235418">
        <ele>198.997973</ele>
        <time>2024-10-26T09:51:54.000Z</time>
      </trkpt>
      <trkpt lat="38.539347" lon="-122.23539">
        <ele>198.751664</ele>
        <time>2024-10-26T09:51:58.000Z</time>
      </trkpt>
      <trkpt lat="38.53878" lon="-122.235622">
        <ele>198.267651</ele>
        <time>2024-10-26T09:52:05.000Z</time>
      </trkpt>
      <trkpt lat="38.538582" lon="-122.235638">
        <ele>198.099187</ele>
        <time>2024-10-26T09:52:07.000Z</time>
      </trkpt>
      <trkpt lat="38.538303" lon="-122.235557">
        <ele>197.861151</ele>
        <time>2024-10-26T09:52:10.000Z</time>
      </trkpt>
      <trkpt lat="38.538062" lon="-122.235371">
        <ele>197.630437</ele>
        <time>2024-10-26T09:52:13.000Z</time>
      </trkpt>
      <trkpt lat="38.537837" lon="-122.234961">
        <ele>196.342072</ele>
        <time>2024-10-26T09:52:17.000Z</time>
      </trkpt>
      <trkpt lat="38.537736" lon="-122.234739">
        <ele>195.644761</ele>
        <time>2024-10-26T09:52:19.000Z</time>
      </trkpt>
      <trkpt lat="38.537297" lon="-122.233764">
        <ele>192.66101</ele>
        <time>2024-10-26T09:52:29.000Z</time>
      </trkpt>
      <trkpt lat="38.536097" lon="-122.231074">
        <ele>183.150651</ele>
        <time>2024-10-26T09:52:56.000Z</time>
      </trkpt>
      <trkpt lat="38.535841" lon="-122.230628">
        <ele>181.208517</ele>
        <time>2024-10-26T09:53:01.000Z</time>
      </trkpt>
      <trkpt lat="38.53481" lon="-122.229402">
        <ele>175.983289</ele>
        <time>2024-10-26T09:53:17.000Z</time>
      </trkpt>
      <trkpt lat="38.533015" lon="-122.227305">
        <ele>174.405082</ele>
        <time>2024-10-26T09:53:44.000Z</time>
      </trkpt>
      <trkpt lat="38.532869" lon="-122.227073">
        <ele>174.657141</ele>
        <time>2024-10-26T09:53:47.000Z</time>
      </trkpt>
      <trkpt lat="38.532816" lon="-122.226981">
        <ele>174.752096</ele>
        <time>2024-10-26T09:53:48.000Z</time>
      </trkpt>
      <trkpt lat="38.532588" lon="-122.226644">
        <ele>175.117451</ele>
        <time>2024-10-26T09:53:52.000Z</time>
      </trkpt>
      <trkpt lat="38.532101" lon="-122.225569">
        <ele>177.109105</ele>
        <time>2024-10-26T09:54:03.000Z</time>
      </trkpt>
      <trkpt lat="38.531839" lon="-122.225173">
        <ele>178.037106</ele>
        <time>2024-10-26T09:54:08.000Z</time>
      </trkpt>
      <trkpt lat="38.531524" lon="-122.224913">
        <ele>178.869001</ele>
        <time>2024-10-26T09:54:12.000Z</time>
      </trkpt>
      <trkpt lat="38.530415" lon="-122.224422">
        <ele>177.782429</ele>
        <time>2024-10-26T09:54:25.000Z</time>
      </trkpt>
      <trkpt lat="38.529961" lon="-122.223915">
        <ele>176.783758</ele>
        <time>2024-10-26T09:54:32.000Z</time>
      </trkpt>
      <trkpt lat="38.52952" lon="-122.223168">
        <ele>175.187282</ele>
        <time>2024-10-26T09:54:40.000Z</time>
      </trkpt>
      <trkpt lat="38.529389" lon="-122.223037">
        <ele>174.758068</ele>
        <time>2024-10-26T09:54:42.000Z</time>
      </trkpt>
      <trkpt lat="38.528999" lon="-122.222922">
        <ele>173.777341</ele>
        <time>2024-10-26T09:54:46.000Z</time>
      </trkpt>
      <trkpt lat="38.528394" lon="-122.222834">
        <ele>172.293249</ele>
        <time>2024-10-26T09:54:53.000Z</time>
      </trkpt>
      <trkpt lat="38.528294" lon="-122.222804">
        <ele>172.041127</ele>
        <time>2024-10-26T09:54:54.000Z</time>
      </trkpt>
      <trkpt lat="38.528096" lon="-122.222602">
        <ele>171.039078</ele>
        <time>2024-10-26T09:54:57.000Z</time>
      </trkpt>
      <trkpt lat="38.527903" lon="-122.222253">
        <ele>169.581811</ele>
        <time>2024-10-26T09:55:01.000Z</time>
      </trkpt>
      <trkpt lat="38.527786" lon="-122.221214">
        <ele>166.134122</ele>
        <time>2024-10-26T09:55:10.000Z</time>
      </trkpt>
      <trkpt lat="38.527295" lon="-122.22024">
        <ele>161.733859</ele>
        <time>2024-10-26T09:55:20.000Z</time>
      </trkpt>
      <trkpt lat="38.527063" lon="-122.219142">
        <ele>156.736374</ele>
        <time>2024-10-26T09:55:30.000Z</time>
      </trkpt>
      <trkpt lat="38.526958" lon="-122.218922">
        <ele>155.600288</ele>
        <time>2024-10-26T09:55:32.000Z</time>
      </trkpt>
      <trkpt lat="38.526762" lon="-122.218678">
        <ele>154.364083</ele>
        <time>2024-10-26T09:55:35.000Z</time>
      </trkpt>
      <trkpt lat="38.526537" lon="-122.218579">
        <ele>154.573862</ele>
        <time>2024-10-26T09:55:38.000Z</time>
      </trkpt>
      <trkpt lat="38.52622" lon="-122.21861">
        <ele>154.87746</ele>
        <time>2024-10-26T09:55:42.000Z</time>
      </trkpt>
      <trkpt lat="38.52543" lon="-122.219025">
        <ele>155.658404</ele>
        <time>2024-10-26T09:55:51.000Z</time>
      </trkpt>
      <trkpt lat="38.525115" lon="-122.219084">
        <ele>155.951384</ele>
        <time>2024-10-26T09:55:55.000Z</time>
      </trkpt>
      <trkpt lat="38.524915" lon="-122.219025">
        <ele>156.518084</ele>
        <time>2024-10-26T09:55:57.000Z</time>
      </trkpt>
      <trkpt lat="38.524727" lon="-122.218922">
        <ele>157.167624</ele>
        <time>2024-10-26T09:55:59.000Z</time>
      </trkpt>
      <trkpt lat="38.524624" lon="-122.218786">
        <ele>157.64634</ele>
        <time>2024-10-26T09:56:01.000Z</time>
      </trkpt>
      <trkpt lat="38.522296" lon="-122.216777">
        <ele>165.157024</ele>
        <time>2024-10-26T09:56:32.000Z</time>
      </trkpt>
      <trkpt lat="38.522063" lon="-122.21659">
        <ele>165.747233</ele>
        <time>2024-10-26T09:56:35.000Z</time>
      </trkpt>
      <trkpt lat="38.521592" lon="-122.216381">
        <ele>165.924009</ele>
        <time>2024-10-26T09:56:41.000Z</time>
      </trkpt>
      <trkpt lat="38.518824" lon="-122.215657">
        <ele>166.726603</ele>
        <time>2024-10-26T09:57:12.000Z</time>
      </trkpt>
      <trkpt lat="38.515275" lon="-122.215147">
        <ele>169.107471</ele>
        <time>2024-10-26T09:57:52.000Z</time>
      </trkpt>
      <trkpt lat="38.510263" lon="-122.213292">
        <ele>169.525846</ele>
        <time>2024-10-26T09:58:50.000Z</time>
      </trkpt>
      <trkpt lat="38.50985" lon="-122.213281">
        <ele>169.367725</ele>
        <time>2024-10-26T09:58:55.000Z</time>
      </trkpt>
      <trkpt lat="38.509486" lon="-122.213421">
        <ele>168.475985</ele>
        <time>2024-10-26T09:58:59.000Z</time>
      </trkpt>
      <trkpt lat="38.508225" lon="-122.21421">
        <ele>164.899225</ele>
        <time>2024-10-26T09:59:15.000Z</time>
      </trkpt>
      <trkpt lat="38.507957" lon="-122.214494">
        <ele>163.234725</ele>
        <time>2024-10-26T09:59:19.000Z</time>
      </trkpt>
      <trkpt lat="38.507834" lon="-122.214775">
        <ele>161.927853</ele>
        <time>2024-10-26T09:59:22.000Z</time>
      </trkpt>
      <trkpt lat="38.507773" lon="-122.215176">
        <ele>160.342145</ele>
        <time>2024-10-26T09:59:26.000Z</time>
      </trkpt>
      <trkpt lat="38.507823" lon="-122.215506">
        <ele>158.973065</ele>
        <time>2024-10-26T09:59:29.000Z</time>
      </trkpt>
      <trkpt lat="38.508548" lon="-122.217719">
        <ele>149.149476</ele>
        <time>2024-10-26T09:59:50.000Z</time>
      </trkpt>
      <trkpt lat="38.508611" lon="-122.21807">
        <ele>147.622531</ele>
        <time>2024-10-26T09:59:53.000Z</time>
      </trkpt>
      <trkpt lat="38.508574" lon="-122.219422">
        <ele>144.411458</ele>
        <time>2024-10-26T10:00:05.000Z</time>
      </trkpt>
      <trkpt lat="38.508685" lon="-122.219819">
        <ele>143.753028</ele>
        <time>2024-10-26T10:00:09.000Z</time>
      </trkpt>
      <trkpt lat="38.508809" lon="-122.220031">
        <ele>143.316651</ele>
        <time>2024-10-26T10:00:11.000Z</time>
      </trkpt>
      <trkpt lat="38.509462" lon="-122.220856">
        <ele>142.087776</ele>
        <time>2024-10-26T10:00:21.000Z</time>
      </trkpt>
      <trkpt lat="38.510172" lon="-122.22281">
        <ele>141.437925</ele>
        <time>2024-10-26T10:00:40.000Z</time>
      </trkpt>
      <trkpt lat="38.510369" lon="-122.223142">
        <ele>141.321363</ele>
        <time>2024-10-26T10:00:44.000Z</time>
      </trkpt>
      <trkpt lat="38.511002" lon="-122.223728">
        <ele>141.038158</ele>
        <time>2024-10-26T10:00:53.000Z</time>
      </trkpt>
      <trkpt lat="38.511172" lon="-122.224175">
        <ele>140.898274</ele>
        <time>2024-10-26T10:00:57.000Z</time>
      </trkpt>
      <trkpt lat="38.511196" lon="-122.228506">
        <ele>138.613509</ele>
        <time>2024-10-26T10:01:35.000Z</time>
      </trkpt>
      <trkpt lat="38.511292" lon="-122.229049">
        <ele>138.604213</ele>
        <time>2024-10-26T10:01:40.000Z</time>
      </trkpt>
      <trkpt lat="38.512077" lon="-122.230151">
        <ele>139.297807</ele>
        <time>2024-10-26T10:01:53.000Z</time>
      </trkpt>
      <trkpt lat="38.512208" lon="-122.230455">
        <ele>139.462404</ele>
        <time>2024-10-26T10:01:56.000Z</time>
      </trkpt>
      <trkpt lat="38.512276" lon="-122.230817">
        <ele>139.456555</ele>
        <time>2024-10-26T10:01:59.000Z</time>
      </trkpt>
      <trkpt lat="38.512244" lon="-122.231263">
        <ele>139.183678</ele>
        <time>2024-10-26T10:02:03.000Z</time>
      </trkpt>
      <trkpt lat="38.512057" lon="-122.231721">
        <ele>138.864278</ele>
        <time>2024-10-26T10:02:07.000Z</time>
      </trkpt>
      <trkpt lat="38.511477" lon="-122.232759">
        <ele>138.21593</ele>
        <time>2024-10-26T10:02:18.000Z</time>
      </trkpt>
      <trkpt lat="38.511126" lon="-122.233144">
        <ele>138.641897</ele>
        <time>2024-10-26T10:02:23.000Z</time>
      </trkpt>
      <trkpt lat="38.510678" lon="-122.233471">
        <ele>139.119122</ele>
        <time>2024-10-26T10:02:29.000Z</time>
      </trkpt>
      <trkpt lat="38.509909" lon="-122.233845">
        <ele>140.207651</ele>
        <time>2024-10-26T10:02:38.000Z</time>
      </trkpt>
      <trkpt lat="38.509502" lon="-122.234026">
        <ele>142.495466</ele>
        <time>2024-10-26T10:02:43.000Z</time>
      </trkpt>
      <trkpt lat="38.508371" lon="-122.234557">
        <ele>148.864854</ele>
        <time>2024-10-26T10:02:56.000Z</time>
      </trkpt>
      <trkpt lat="38.508044" lon="-122.234886">
        <ele>150.391058</ele>
        <time>2024-10-26T10:03:01.000Z</time>
      </trkpt>
      <trkpt lat="38.50779" lon="-122.235311">
        <ele>151.808509</ele>
        <time>2024-10-26T10:03:06.000Z</time>
      </trkpt>
      <trkpt lat="38.507524" lon="-122.235911">
        <ele>153.647753</ele>
        <time>2024-10-26T10:03:12.000Z</time>
      </trkpt>
      <trkpt lat="38.50732" lon="-122.236152">
        <ele>154.596956</ele>
        <time>2024-10-26T10:03:15.000Z</time>
      </trkpt>
      <trkpt lat="38.506916" lon="-122.236399">
        <ele>155.10457</ele>
        <time>2024-10-26T10:03:20.000Z</time>
      </trkpt>
      <trkpt lat="38.506702" lon="-122.236424">
        <ele>154.857177</ele>
        <time>2024-10-26T10:03:22.000Z</time>
      </trkpt>
      <trkpt lat="38.506921" lon="-122.236393">
        <ele>154.609772</ele>
        <time>2024-10-26T10:03:24.000Z</time>
      </trkpt>
      <trkpt lat="38.507319" lon="-122.236164">
        <ele>154.091236</ele>
        <time>2024-10-26T10:03:29.000Z</time>
      </trkpt>
      <trkpt lat="38.507519" lon="-122.235911">
        <ele>153.762007</ele>
        <time>2024-10-26T10:03:32.000Z</time>
      </trkpt>
      <trkpt lat="38.507788" lon="-122.235303">
        <ele>152.65076</ele>
        <time>2024-10-26T10:03:38.000Z</time>
      </trkpt>
      <trkpt lat="38.508046" lon="-122.234875">
        <ele>150.461697</ele>
        <time>2024-10-26T10:03:43.000Z</time>
      </trkpt>
      <trkpt lat="38.508383" lon="-122.234569">
        <ele>148.355018</ele>
        <time>2024-10-26T10:03:48.000Z</time>
      </trkpt>
      <trkpt lat="38.5095" lon="-122.234022">
        <ele>142.725255</ele>
        <time>2024-10-26T10:04:01.000Z</time>
      </trkpt>
      <trkpt lat="38.509914" lon="-122.233842">
        <ele>141.254203</ele>
        <time>2024-10-26T10:04:06.000Z</time>
      </trkpt>
      <trkpt lat="38.510683" lon="-122.23347">
        <ele>138.463918</ele>
        <time>2024-10-26T10:04:15.000Z</time>
      </trkpt>
      <trkpt lat="38.511129" lon="-122.233156">
        <ele>138.068268</ele>
        <time>2024-10-26T10:04:21.000Z</time>
      </trkpt>
      <trkpt lat="38.511476" lon="-122.23276">
        <ele>138.431316</ele>
        <time>2024-10-26T10:04:26.000Z</time>
      </trkpt>
      <trkpt lat="38.512063" lon="-122.231728">
        <ele>139.217512</ele>
        <time>2024-10-26T10:04:37.000Z</time>
      </trkpt>
      <trkpt lat="38.512238" lon="-122.231267">
        <ele>139.188548</ele>
        <time>2024-10-26T10:04:41.000Z</time>
      </trkpt>
      <trkpt lat="38.512278" lon="-122.230828">
        <ele>139.146962</ele>
        <time>2024-10-26T10:04:45.000Z</time>
      </trkpt>
      <trkpt lat="38.512216" lon="-122.230455">
        <ele>139.112308</ele>
        <time>2024-10-26T10:04:48.000Z</time>
      </trkpt>
      <trkpt lat="38.51208" lon="-122.230155">
        <ele>139.079171</ele>
        <time>2024-10-26T10:04:51.000Z</time>
      </trkpt>
      <trkpt lat="38.511308" lon="-122.229052">
        <ele>138.907706</ele>
        <time>2024-10-26T10:05:04.000Z</time>
      </trkpt>
      <trkpt lat="38.511196" lon="-122.228495">
        <ele>138.834462</ele>
        <time>2024-10-26T10:05:09.000Z</time>
      </trkpt>
      <trkpt lat="38.511178" lon="-122.224191">
        <ele>140.774145</ele>
        <time>2024-10-26T10:05:46.000Z</time>
      </trkpt>
      <trkpt lat="38.510993" lon="-122.223723">
        <ele>141.008775</ele>
        <time>2024-10-26T10:05:51.000Z</time>
      </trkpt>
      <trkpt lat="38.510359" lon="-122.223139">
        <ele>141.389188</ele>
        <time>2024-10-26T10:06:00.000Z</time>
      </trkpt>
      <trkpt lat="38.510159" lon="-122.222807">
        <ele>141.467193</ele>
        <time>2024-10-26T10:06:04.000Z</time>
      </trkpt>
      <trkpt lat="38.509455" lon="-122.220868">
        <ele>142.213396</ele>
        <time>2024-10-26T10:06:23.000Z</time>
      </trkpt>
      <trkpt lat="38.508821" lon="-122.220034">
        <ele>143.112269</ele>
        <time>2024-10-26T10:06:33.000Z</time>
      </trkpt>
      <trkpt lat="38.508687" lon="-122.219816">
        <ele>143.321046</ele>
        <time>2024-10-26T10:06:35.000Z</time>
      </trkpt>
      <trkpt lat="38.50857" lon="-122.219427">
        <ele>143.990682</ele>
        <time>2024-10-26T10:06:39.000Z</time>
      </trkpt>
      <trkpt lat="38.508609" lon="-122.218076">
        <ele>148.032067</ele>
        <time>2024-10-26T10:06:51.000Z</time>
      </trkpt>
      <trkpt lat="38.508554" lon="-122.217714">
        <ele>149.128329</ele>
        <time>2024-10-26T10:06:54.000Z</time>
      </trkpt>
      <trkpt lat="38.507826" lon="-122.215516">
        <ele>159.342062</ele>
        <time>2024-10-26T10:07:15.000Z</time>
      </trkpt>
      <trkpt lat="38.507773" lon="-122.215166">
        <ele>160.88031</ele>
        <time>2024-10-26T10:07:18.000Z</time>
      </trkpt>
      <trkpt lat="38.507838" lon="-122.214779">
        <ele>162.034004</ele>
        <time>2024-10-26T10:07:21.000Z</time>
      </trkpt>
      <trkpt lat="38.507949" lon="-122.214509">
        <ele>162.984815</ele>
        <time>2024-10-26T10:07:24.000Z</time>
      </trkpt>
      <trkpt lat="38.508241" lon="-122.214199">
        <ele>164.325596</ele>
        <time>2024-10-26T10:07:28.000Z</time>
      </trkpt>
      <trkpt lat="38.509486" lon="-122.213422">
        <ele>168.309325</ele>
        <time>2024-10-26T10:07:43.000Z</time>
      </trkpt>
      <trkpt lat="38.509862" lon="-122.21328">
        <ele>168.868292</ele>
        <time>2024-10-26T10:07:47.000Z</time>
      </trkpt>
      <trkpt lat="38.510258" lon="-122.213294">
        <ele>169.44881</ele>
        <time>2024-10-26T10:07:51.000Z</time>
      </trkpt>
      <trkpt lat="38.515276" lon="-122.215148">
        <ele>169.046919</ele>
        <time>2024-10-26T10:08:49.000Z</time>
      </trkpt>
      <trkpt lat="38.518823" lon="-122.215657">
        <ele>166.807587</ele>
        <time>2024-10-26T10:09:29.000Z</time>
      </trkpt>
      <trkpt lat="38.521591" lon="-122.216381">
        <ele>165.84357</ele>
        <time>2024-10-26T10:10:00.000Z</time>
      </trkpt>
      <trkpt lat="38.522053" lon="-122.216579">
        <ele>165.212606</ele>
        <time>2024-10-26T10:10:05.000Z</time>
      </trkpt>
      <trkpt lat="38.522288" lon="-122.21678">
        <ele>164.846459</ele>
        <time>2024-10-26T10:10:08.000Z</time>
      </trkpt>
      <trkpt lat="38.524632" lon="-122.21877">
        <ele>157.944991</ele>
        <time>2024-10-26T10:10:39.000Z</time>
      </trkpt>
      <trkpt lat="38.524726" lon="-122.218923">
        <ele>157.490854</ele>
        <time>2024-10-26T10:10:41.000Z</time>
      </trkpt>
      <trkpt lat="38.524922" lon="-122.219027">
        <ele>156.874656</ele>
        <time>2024-10-26T10:10:43.000Z</time>
      </trkpt>
      <trkpt lat="38.525118" lon="-122.219082">
        <ele>156.28114</ele>
        <time>2024-10-26T10:10:45.000Z</time>
      </trkpt>
      <trkpt lat="38.52543" lon="-122.219018">
        <ele>155.322433</ele>
        <time>2024-10-26T10:10:49.000Z</time>
      </trkpt>
      <trkpt lat="38.526207" lon="-122.218608">
        <ele>154.296878</ele>
        <time>2024-10-26T10:10:58.000Z</time>
      </trkpt>
      <trkpt lat="38.526537" lon="-122.218569">
        <ele>155.296529</ele>
        <time>2024-10-26T10:11:02.000Z</time>
      </trkpt>
      <trkpt lat="38.526759" lon="-122.218669">
        <ele>155.987326</ele>
        <time>2024-10-26T10:11:05.000Z</time>
      </trkpt>
      <trkpt lat="38.526953" lon="-122.218926">
        <ele>156.837554</ele>
        <time>2024-10-26T10:11:08.000Z</time>
      </trkpt>
      <trkpt lat="38.52706" lon="-122.219154">
        <ele>157.454465</ele>
        <time>2024-10-26T10:11:10.000Z</time>
      </trkpt>
      <trkpt lat="38.527295" lon="-122.220238">
        <ele>161.150643</ele>
        <time>2024-10-26T10:11:20.000Z</time>
      </trkpt>
      <trkpt lat="38.527783" lon="-122.221205">
        <ele>166.108319</ele>
        <time>2024-10-26T10:11:30.000Z</time>
      </trkpt>
      <trkpt lat="38.527888" lon="-122.222253">
        <ele>169.874989</ele>
        <time>2024-10-26T10:11:39.000Z</time>
      </trkpt>
      <trkpt lat="38.528089" lon="-122.222614">
        <ele>170.88707</ele>
        <time>2024-10-26T10:11:43.000Z</time>
      </trkpt>
      <trkpt lat="38.528297" lon="-122.222791">
        <ele>171.634406</ele>
        <time>2024-10-26T10:11:46.000Z</time>
      </trkpt>
      <trkpt lat="38.528401" lon="-122.222827">
        <ele>171.932232</ele>
        <time>2024-10-26T10:11:47.000Z</time>
      </trkpt>
      <trkpt lat="38.529004" lon="-122.222918">
        <ele>173.685406</ele>
        <time>2024-10-26T10:11:54.000Z</time>
      </trkpt>
      <trkpt lat="38.529383" lon="-122.223038">
        <ele>174.735419</ele>
        <time>2024-10-26T10:11:58.000Z</time>
      </trkpt>
      <trkpt lat="38.529521" lon="-122.223167">
        <ele>175.149738</ele>
        <time>2024-10-26T10:12:00.000Z</time>
      </trkpt>
      <trkpt lat="38.529964" lon="-122.223906">
        <ele>176.882312</ele>
        <time>2024-10-26T10:12:08.000Z</time>
      </trkpt>
      <trkpt lat="38.530416" lon="-122.224412">
        <ele>178.323188</ele>
        <time>2024-10-26T10:12:15.000Z</time>
      </trkpt>
      <trkpt lat="38.531517" lon="-122.224909">
        <ele>178.254846</ele>
        <time>2024-10-26T10:12:28.000Z</time>
      </trkpt>
      <trkpt lat="38.531821" lon="-122.225166">
        <ele>178.155945</ele>
        <time>2024-10-26T10:12:32.000Z</time>
      </trkpt>
      <trkpt lat="38.532099" lon="-122.225569">
        <ele>177.901821</ele>
        <time>2024-10-26T10:12:37.000Z</time>
      </trkpt>
      <trkpt lat="38.532591" lon="-122.226642">
        <ele>175.314901</ele>
        <time>2024-10-26T10:12:48.000Z</time>
      </trkpt>
      <trkpt lat="38.532811" lon="-122.226978">
        <ele>174.406544</ele>
        <time>2024-10-26T10:12:52.000Z</time>
      </trkpt>
      <trkpt lat="38.53288" lon="-122.227064">
        <ele>174.17044</ele>
        <time>2024-10-26T10:12:53.000Z</time>
      </trkpt>
      <trkpt lat="38.533023" lon="-122.227299">
        <ele>173.543764</ele>
        <time>2024-10-26T10:12:56.000Z</time>
      </trkpt>
      <trkpt lat="38.534807" lon="-122.229413">
        <ele>176.237328</ele>
        <time>2024-10-26T10:13:23.000Z</time>
      </trkpt>
      <trkpt lat="38.535828" lon="-122.230623">
        <ele>181.085439</ele>
        <time>2024-10-26T10:13:38.000Z</time>
      </trkpt>
      <trkpt lat="38.536111" lon="-122.231076">
        <ele>183.003264</ele>
        <time>2024-10-26T10:13:43.000Z</time>
      </trkpt>
      <trkpt lat="38.537299" lon="-122.23376">
        <ele>192.652224</ele>
        <time>2024-10-26T10:14:10.000Z</time>
      </trkpt>
      <trkpt lat="38.537722" lon="-122.234729">
        <ele>195.640485</ele>
        <time>2024-10-26T10:14:20.000Z</time>
      </trkpt>
      <trkpt lat="38.537829" lon="-122.234961">
        <ele>196.196106</ele>
        <time>2024-10-26T10:14:22.000Z</time>
      </trkpt>
      <trkpt lat="38.53805" lon="-122.235372">
        <ele>197.255821</ele>
        <time>2024-10-26T10:14:26.000Z</time>
      </trkpt>
      <trkpt lat="38.538296" lon="-122.235573">
        <ele>198.023334</ele>
        <time>2024-10-26T10:14:29.000Z</time>
      </trkpt>
      <trkpt lat="38.538573" lon="-122.235642">
        <ele>198.815251</ele>
        <time>2024-10-26T10:14:32.000Z</time>
      </trkpt>
      <trkpt lat="38.538783" lon="-122.235619">
        <ele>199.375659</ele>
        <time>2024-10-26T10:14:34.000Z</time>
      </trkpt>
      <trkpt lat="38.539356" lon="-122.235403">
        <ele>198.11578</ele>
        <time>2024-10-26T10:14:41.000Z</time>
      </trkpt>
      <trkpt lat="38.539659" lon="-122.235417">
        <ele>197.022836</ele>
        <time>2024-10-26T10:14:44.000Z</time>
      </trkpt>
      <trkpt lat="38.539896" lon="-122.235536">
        <ele>196.094746</ele>
        <time>2024-10-26T10:14:47.000Z</time>
      </trkpt>
      <trkpt lat="38.540042" lon="-122.235683">
        <ele>195.440442</ele>
        <time>2024-10-26T10:14:49.000Z</time>
      </trkpt>
      <trkpt lat="38.540192" lon="-122.236001">
        <ele>194.369685</ele>
        <time>2024-10-26T10:14:52.000Z</time>
      </trkpt>
      <trkpt lat="38.540621" lon="-122.237803">
        <ele>181.0049</ele>
        <time>2024-10-26T10:15:08.000Z</time>
      </trkpt>
      <trkpt lat="38.540816" lon="-122.238244">
        <ele>176.927581</ele>
        <time>2024-10-26T10:15:12.000Z</time>
      </trkpt>
      <trkpt lat="38.541054" lon="-122.238393">
        <ele>174.203372</ele>
        <time>2024-10-26T10:15:15.000Z</time>
      </trkpt>
      <trkpt lat="38.541147" lon="-122.238401">
        <ele>173.516422</ele>
        <time>2024-10-26T10:15:16.000Z</time>
      </trkpt>
      <trkpt lat="38.541301" lon="-122.238418">
        <ele>172.555438</ele>
        <time>2024-10-26T10:15:18.000Z</time>
      </trkpt>
      <trkpt lat="38.541672" lon="-122.238374">
        <ele>170.185184</ele>
        <time>2024-10-26T10:15:22.000Z</time>
      </trkpt>
      <trkpt lat="38.54191" lon="-122.238303">
        <ele>168.65947</ele>
        <time>2024-10-26T10:15:25.000Z</time>
      </trkpt>
      <trkpt lat="38.542157" lon="-122.23817">
        <ele>166.984508</ele>
        <time>2024-10-26T10:15:28.000Z</time>
      </trkpt>
      <trkpt lat="38.542225" lon="-122.238128">
        <ele>166.454047</ele>
        <time>2024-10-26T10:15:29.000Z</time>
      </trkpt>
      <trkpt lat="38.54428" lon="-122.23555">
        <ele>157.832534</ele>
        <time>2024-10-26T10:16:01.000Z</time>
      </trkpt>
      <trkpt lat="38.544455" lon="-122.235435">
        <ele>157.19178</ele>
        <time>2024-10-26T10:16:03.000Z</time>
      </trkpt>
      <trkpt lat="38.544918" lon="-122.235286">
        <ele>155.669311</ele>
        <time>2024-10-26T10:16:08.000Z</time>
      </trkpt>
      <trkpt lat="38.54582" lon="-122.235191">
        <ele>152.662081</ele>
        <time>2024-10-26T10:16:18.000Z</time>
      </trkpt>
      <trkpt lat="38.54625" lon="-122.235343">
        <ele>151.104578</ele>
        <time>2024-10-26T10:16:23.000Z</time>
      </trkpt>
      <trkpt lat="38.546756" lon="-122.235666">
        <ele>149.182702</ele>
        <time>2024-10-26T10:16:29.000Z</time>
      </trkpt>
      <trkpt lat="38.547003" lon="-122.235757">
        <ele>148.291322</ele>
        <time>2024-10-26T10:16:32.000Z</time>
      </trkpt>
      <trkpt lat="38.547339" lon="-122.235771">
        <ele>147.214086</ele>
        <time>2024-10-26T10:16:36.000Z</time>
      </trkpt>
      <trkpt lat="38.547784" lon="-122.235605">
        <ele>146.033363</ele>
        <time>2024-10-26T10:16:41.000Z</time>
      </trkpt>
      <trkpt lat="38.548586" lon="-122.235086">
        <ele>143.690329</ele>
        <time>2024-10-26T10:16:51.000Z</time>
      </trkpt>
      <trkpt lat="38.549377" lon="-122.234481">
        <ele>142.812949</ele>
        <time>2024-10-26T10:17:01.000Z</time>
      </trkpt>
      <trkpt lat="38.54963" lon="-122.234109">
        <ele>142.783843</ele>
        <time>2024-10-26T10:17:05.000Z</time>
      </trkpt>
      <trkpt lat="38.550597" lon="-122.232339">
        <ele>144.4209</ele>
        <time>2024-10-26T10:17:24.000Z</time>
      </trkpt>
      <trkpt lat="38.550688" lon="-122.232171">
        <ele>144.729373</ele>
        <time>2024-10-26T10:17:26.000Z</time>
      </trkpt>
      <trkpt lat="38.550949" lon="-122.23181">
        <ele>145.497462</ele>
        <time>2024-10-26T10:17:30.000Z</time>
      </trkpt>
      <trkpt lat="38.551179" lon="-122.231631">
        <ele>146.031909</ele>
        <time>2024-10-26T10:17:33.000Z</time>
      </trkpt>
      <trkpt lat="38.551232" lon="-122.231587">
        <ele>146.170937</ele>
        <time>2024-10-26T10:17:34.000Z</time>
      </trkpt>
      <trkpt lat="38.551583" lon="-122.231454">
        <ele>146.188839</ele>
        <time>2024-10-26T10:17:38.000Z</time>
      </trkpt>
      <trkpt lat="38.553382" lon="-122.231444">
        <ele>145.505873</ele>
        <time>2024-10-26T10:17:58.000Z</time>
      </trkpt>
      <trkpt lat="38.553919" lon="-122.231497">
        <ele>145.004981</ele>
        <time>2024-10-26T10:18:04.000Z</time>
      </trkpt>
      <trkpt lat="38.554356" lon="-122.23173">
        <ele>144.561438</ele>
        <time>2024-10-26T10:18:09.000Z</time>
      </trkpt>
      <trkpt lat="38.555052" lon="-122.232217">
        <ele>143.906762</ele>
        <time>2024-10-26T10:18:18.000Z</time>
      </trkpt>
      <trkpt lat="38.555608" lon="-122.232599">
        <ele>143.483038</ele>
        <time>2024-10-26T10:18:25.000Z</time>
      </trkpt>
      <trkpt lat="38.556869" lon="-122.233054">
        <ele>143.203528</ele>
        <time>2024-10-26T10:18:40.000Z</time>
      </trkpt>
      <trkpt lat="38.557295" lon="-122.233263">
        <ele>143.490854</ele>
        <time>2024-10-26T10:18:45.000Z</time>
      </trkpt>
      <trkpt lat="38.5593" lon="-122.234685">
        <ele>146.552251</ele>
        <time>2024-10-26T10:19:10.000Z</time>
      </trkpt>
      <trkpt lat="38.559556" lon="-122.234797">
        <ele>147.027351</ele>
        <time>2024-10-26T10:19:13.000Z</time>
      </trkpt>
      <trkpt lat="38.559993" lon="-122.234927">
        <ele>147.916746</ele>
        <time>2024-10-26T10:19:18.000Z</time>
      </trkpt>
      <trkpt lat="38.560776" lon="-122.235083">
        <ele>149.553886</ele>
        <time>2024-10-26T10:19:27.000Z</time>
      </trkpt>
      <trkpt lat="38.561236" lon="-122.235279">
        <ele>150.555875</ele>
        <time>2024-10-26T10:19:32.000Z</time>
      </trkpt>
      <trkpt lat="38.561822" lon="-122.235675">
        <ele>152.338285</ele>
        <time>2024-10-26T10:19:39.000Z</time>
      </trkpt>
      <trkpt lat="38.56225" lon="-122.235804">
        <ele>153.594626</ele>
        <time>2024-10-26T10:19:44.000Z</time>
      </trkpt>
      <trkpt lat="38.563392" lon="-122.235991">
        <ele>156.813193</ele>
        <time>2024-10-26T10:19:57.000Z</time>
      </trkpt>
      <trkpt lat="38.56372" lon="-122.236182">
        <ele>157.573781</ele>
        <time>2024-10-26T10:20:01.000Z</time>
      </trkpt>
      <trkpt lat="38.56545" lon="-122.237946">
        <ele>159.989577</ele>
        <time>2024-10-26T10:20:26.000Z</time>
      </trkpt>
      <trkpt lat="38.56565" lon="-122.238152">
        <ele>159.9628</ele>
        <time>2024-10-26T10:20:29.000Z</time>
      </trkpt>
      <trkpt lat="38.565834" lon="-122.238394">
        <ele>159.93353</ele>
        <time>2024-10-26T10:20:32.000Z</time>
      </trkpt>
      <trkpt lat="38.566887" lon="-122.239977">
        <ele>156.341845</ele>
        <time>2024-10-26T10:20:50.000Z</time>
      </trkpt>
      <trkpt lat="38.567286" lon="-122.240388">
        <ele>155.214444</ele>
        <time>2024-10-26T10:20:56.000Z</time>
      </trkpt>
      <trkpt lat="38.568676" lon="-122.24153">
        <ele>154.422523</ele>
        <time>2024-10-26T10:21:14.000Z</time>
      </trkpt>
      <trkpt lat="38.569099" lon="-122.241782">
        <ele>154.9922</ele>
        <time>2024-10-26T10:21:19.000Z</time>
      </trkpt>
      <trkpt lat="38.56943" lon="-122.24179">
        <ele>155.480521</ele>
        <time>2024-10-26T10:21:23.000Z</time>
      </trkpt>
      <trkpt lat="38.569979" lon="-122.241711">
        <ele>156.299502</ele>
        <time>2024-10-26T10:21:29.000Z</time>
      </trkpt>
      <trkpt lat="38.570268" lon="-122.241742">
        <ele>156.737934</ele>
        <time>2024-10-26T10:21:32.000Z</time>
      </trkpt>
      <trkpt lat="38.57057" lon="-122.241915">
        <ele>157.052312</ele>
        <time>2024-10-26T10:21:36.000Z</time>
      </trkpt>
      <trkpt lat="38.570849" lon="-122.242232">
        <ele>157.092633</ele>
        <time>2024-10-26T10:21:40.000Z</time>
      </trkpt>
      <trkpt lat="38.571366" lon="-122.243412">
        <ele>157.20812</ele>
        <time>2024-10-26T10:21:52.000Z</time>
      </trkpt>
      <trkpt lat="38.571618" lon="-122.243722">
        <ele>157.005295</ele>
        <time>2024-10-26T10:21:56.000Z</time>
      </trkpt>
      <trkpt lat="38.571936" lon="-122.243948">
        <ele>156.080991</ele>
        <time>2024-10-26T10:22:00.000Z</time>
      </trkpt>
      <trkpt lat="38.572251" lon="-122.244024">
        <ele>155.286072</ele>
        <time>2024-10-26T10:22:04.000Z</time>
      </trkpt>
      <trkpt lat="38.573475" lon="-122.244294">
        <ele>152.314186</ele>
        <time>2024-10-26T10:22:18.000Z</time>
      </trkpt>
      <trkpt lat="38.573955" lon="-122.244478">
        <ele>151.175803</ele>
        <time>2024-10-26T10:22:24.000Z</time>
      </trkpt>
      <trkpt lat="38.574347" lon="-122.244695">
        <ele>150.242709</ele>
        <time>2024-10-26T10:22:29.000Z</time>
      </trkpt>
      <trkpt lat="38.574473" lon="-122.24479">
        <ele>149.914897</ele>
        <time>2024-10-26T10:22:31.000Z</time>
      </trkpt>
      <trkpt lat="38.575531" lon="-122.245399">
        <ele>148.72918</ele>
        <time>2024-10-26T10:22:44.000Z</time>
      </trkpt>
      <trkpt lat="38.575855" lon="-122.245678">
        <ele>148.675824</ele>
        <time>2024-10-26T10:22:48.000Z</time>
      </trkpt>
      <trkpt lat="38.576002" lon="-122.245916">
        <ele>148.64341</ele>
        <time>2024-10-26T10:22:51.000Z</time>
      </trkpt>
      <trkpt lat="38.576641" lon="-122.246865">
        <ele>149.122757</ele>
        <time>2024-10-26T10:23:02.000Z</time>
      </trkpt>
      <trkpt lat="38.576879" lon="-122.247367">
        <ele>149.662949</ele>
        <time>2024-10-26T10:23:07.000Z</time>
      </trkpt>
      <trkpt lat="38.577089" lon="-122.248969">
        <ele>150.94364</ele>
        <time>2024-10-26T10:23:21.000Z</time>
      </trkpt>
      <trkpt lat="38.577287" lon="-122.249273">
        <ele>151.161652</ele>
        <time>2024-10-26T10:23:24.000Z</time>
      </trkpt>
      <trkpt lat="38.577642" lon="-122.249634">
        <ele>151.484262</ele>
        <time>2024-10-26T10:23:29.000Z</time>
      </trkpt>
      <trkpt lat="38.577834" lon="-122.25002">
        <ele>151.739027</ele>
        <time>2024-10-26T10:23:33.000Z</time>
      </trkpt>
      <trkpt lat="38.577831" lon="-122.250908">
        <ele>151.839945</ele>
        <time>2024-10-26T10:23:41.000Z</time>
      </trkpt>
      <trkpt lat="38.577684" lon="-122.253365">
        <ele>150.745233</ele>
        <time>2024-10-26T10:24:02.000Z</time>
      </trkpt>
      <trkpt lat="38.577746" lon="-122.253694">
        <ele>150.391495</ele>
        <time>2024-10-26T10:24:05.000Z</time>
      </trkpt>
      <trkpt lat="38.578013" lon="-122.25408">
        <ele>149.79534</ele>
        <time>2024-10-26T10:24:09.000Z</time>
      </trkpt>
      <trkpt lat="38.578244" lon="-122.254174">
        <ele>149.457387</ele>
        <time>2024-10-26T10:24:12.000Z</time>
      </trkpt>
      <trkpt lat="38.578485" lon="-122.254157">
        <ele>149.127557</ele>
        <time>2024-10-26T10:24:15.000Z</time>
      </trkpt>
      <trkpt lat="38.57874" lon="-122.253992">
        <ele>148.96781</ele>
        <time>2024-10-26T10:24:18.000Z</time>
      </trkpt>
      <trkpt lat="38.579462" lon="-122.253524">
        <ele>148.860425</ele>
        <time>2024-10-26T10:24:27.000Z</time>
      </trkpt>
      <trkpt lat="38.579777" lon="-122.253503">
        <ele>148.817188</ele>
        <time>2024-10-26T10:24:31.000Z</time>
      </trkpt>
      <trkpt lat="38.580131" lon="-122.253634">
        <ele>148.767079</ele>
        <time>2024-10-26T10:24:35.000Z</time>
      </trkpt>
      <trkpt lat="38.580422" lon="-122.253809">
        <ele>149.162111</ele>
        <time>2024-10-26T10:24:39.000Z</time>
      </trkpt>
      <trkpt lat="38.581437" lon="-122.254439">
        <ele>151.295171</ele>
        <time>2024-10-26T10:24:52.000Z</time>
      </trkpt>
      <trkpt lat="38.582012" lon="-122.254499">
        <ele>152.475698</ele>
        <time>2024-10-26T10:24:58.000Z</time>
      </trkpt>
      <trkpt lat="38.582299" lon="-122.254419">
        <ele>153.291153</ele>
        <time>2024-10-26T10:25:01.000Z</time>
      </trkpt>
      <trkpt lat="38.583346" lon="-122.253732">
        <ele>156.490856</ele>
        <time>2024-10-26T10:25:14.000Z</time>
      </trkpt>
      <trkpt lat="38.583701" lon="-122.25363">
        <ele>157.294024</ele>
        <time>2024-10-26T10:25:18.000Z</time>
      </trkpt>
      <trkpt lat="38.583933" lon="-122.253668">
        <ele>157.678488</ele>
        <time>2024-10-26T10:25:21.000Z</time>
      </trkpt>
      <trkpt lat="38.584404" lon="-122.253905">
        <ele>158.499255</ele>
        <time>2024-10-26T10:25:27.000Z</time>
      </trkpt>
      <trkpt lat="38.585555" lon="-122.254938">
        <ele>159.436733</ele>
        <time>2024-10-26T10:25:43.000Z</time>
      </trkpt>
      <trkpt lat="38.587746" lon="-122.256232">
        <ele>157.591594</ele>
        <time>2024-10-26T10:26:10.000Z</time>
      </trkpt>
      <trkpt lat="38.587755" lon="-122.256239">
        <ele>157.588529</ele>
        <time>2024-10-26T10:26:10.000Z</time>
      </trkpt>
      <trkpt lat="38.587906" lon="-122.256328">
        <ele>157.53075</ele>
        <time>2024-10-26T10:26:12.000Z</time>
      </trkpt>
      <trkpt lat="38.588188" lon="-122.256584">
        <ele>157.416698</ele>
        <time>2024-10-26T10:26:16.000Z</time>
      </trkpt>
      <trkpt lat="38.588353" lon="-122.256799">
        <ele>157.594378</ele>
        <time>2024-10-26T10:26:19.000Z</time>
      </trkpt>
      <trkpt lat="38.588596" lon="-122.257271">
        <ele>159.478201</ele>
        <time>2024-10-26T10:26:24.000Z</time>
      </trkpt>
      <trkpt lat="38.589386" lon="-122.260217">
        <ele>169.659698</ele>
        <time>2024-10-26T10:26:51.000Z</time>
      </trkpt>
      <trkpt lat="38.589603" lon="-122.260664">
        <ele>171.431423</ele>
        <time>2024-10-26T10:26:56.000Z</time>
      </trkpt>
      <trkpt lat="38.589975" lon="-122.26113">
        <ele>173.051247</ele>
        <time>2024-10-26T10:27:02.000Z</time>
      </trkpt>
      <trkpt lat="38.590702" lon="-122.261748">
        <ele>175.069605</ele>
        <time>2024-10-26T10:27:12.000Z</time>
      </trkpt>
      <trkpt lat="38.591042" lon="-122.26218">
        <ele>176.143691</ele>
        <time>2024-10-26T10:27:17.000Z</time>
      </trkpt>
      <trkpt lat="38.592663" lon="-122.265349">
        <ele>186.272121</ele>
        <time>2024-10-26T10:27:50.000Z</time>
      </trkpt>
      <trkpt lat="38.592782" lon="-122.265718">
        <ele>187.444781</ele>
        <time>2024-10-26T10:27:53.000Z</time>
      </trkpt>
      <trkpt lat="38.592839" lon="-122.26613">
        <ele>188.757402</ele>
        <time>2024-10-26T10:27:57.000Z</time>
      </trkpt>
      <trkpt lat="38.592818" lon="-122.266507">
        <ele>189.796216</ele>
        <time>2024-10-26T10:28:00.000Z</time>
      </trkpt>
      <trkpt lat="38.592579" lon="-122.268025">
        <ele>193.777537</ele>
        <time>2024-10-26T10:28:13.000Z</time>
      </trkpt>
      <trkpt lat="38.59252" lon="-122.268548">
        <ele>195.128829</ele>
        <time>2024-10-26T10:28:18.000Z</time>
      </trkpt>
      <trkpt lat="38.592689" lon="-122.269071">
        <ele>195.200716</ele>
        <time>2024-10-26T10:28:23.000Z</time>
      </trkpt>
      <trkpt lat="38.592871" lon="-122.269297">
        <ele>195.149077</ele>
        <time>2024-10-26T10:28:26.000Z</time>
      </trkpt>
      <trkpt lat="38.594457" lon="-122.27036">
        <ele>194.444717</ele>
        <time>2024-10-26T10:28:46.000Z</time>
      </trkpt>
      <trkpt lat="38.594787" lon="-122.270482">
        <ele>194.196731</ele>
        <time>2024-10-26T10:28:50.000Z</time>
      </trkpt>
      <trkpt lat="38.595378" lon="-122.270413">
        <ele>193.750571</ele>
        <time>2024-10-26T10:28:57.000Z</time>
      </trkpt>
      <trkpt lat="38.595897" lon="-122.270363">
        <ele>193.595959</ele>
        <time>2024-10-26T10:29:03.000Z</time>
      </trkpt>
      <trkpt lat="38.596213" lon="-122.27046">
        <ele>193.604291</ele>
        <time>2024-10-26T10:29:07.000Z</time>
      </trkpt>
      <trkpt lat="38.598432" lon="-122.272241">
        <ele>193.286809</ele>
        <time>2024-10-26T10:29:36.000Z</time>
      </trkpt>
      <trkpt lat="38.598882" lon="-122.272518">
        <ele>192.954671</ele>
        <time>2024-10-26T10:29:42.000Z</time>
      </trkpt>
      <trkpt lat="38.60018" lon="-122.273079">
        <ele>190.609674</ele>
        <time>2024-10-26T10:29:57.000Z</time>
      </trkpt>
      <trkpt lat="38.600513" lon="-122.273363">
        <ele>189.748139</ele>
        <time>2024-10-26T10:30:01.000Z</time>
      </trkpt>
      <trkpt lat="38.600799" lon="-122.273748">
        <ele>188.347906</ele>
        <time>2024-10-26T10:30:06.000Z</time>
      </trkpt>
      <trkpt lat="38.601569" lon="-122.275542">
        <ele>182.501853</ele>
        <time>2024-10-26T10:30:24.000Z</time>
      </trkpt>
      <trkpt lat="38.60174" lon="-122.276057">
        <ele>180.472459</ele>
        <time>2024-10-26T10:30:29.000Z</time>
      </trkpt>
      <trkpt lat="38.601899" lon="-122.276885">
        <ele>177.311783</ele>
        <time>2024-10-26T10:30:36.000Z</time>
      </trkpt>
      <trkpt lat="38.602119" lon="-122.277405">
        <ele>175.572788</ele>
        <time>2024-10-26T10:30:41.000Z</time>
      </trkpt>
      <trkpt lat="38.60247" lon="-122.277784">
        <ele>175.215608</ele>
        <time>2024-10-26T10:30:46.000Z</time>
      </trkpt>
      <trkpt lat="38.602776" lon="-122.277947">
        <ele>174.959651</ele>
        <time>2024-10-26T10:30:50.000Z</time>
      </trkpt>
      <trkpt lat="38.603792" lon="-122.278308">
        <ele>175.022748</ele>
        <time>2024-10-26T10:31:02.000Z</time>
      </trkpt>
      <trkpt lat="38.604256" lon="-122.278579">
        <ele>177.843947</ele>
        <time>2024-10-26T10:31:08.000Z</time>
      </trkpt>
      <trkpt lat="38.604613" lon="-122.278967">
        <ele>180.536325</ele>
        <time>2024-10-26T10:31:13.000Z</time>
      </trkpt>
      <trkpt lat="38.605306" lon="-122.279988">
        <ele>185.340522</ele>
        <time>2024-10-26T10:31:25.000Z</time>
      </trkpt>
      <trkpt lat="38.605597" lon="-122.280287">
        <ele>186.444727</ele>
        <time>2024-10-26T10:31:29.000Z</time>
      </trkpt>
      <trkpt lat="38.607762" lon="-122.282193">
        <ele>190.367154</ele>
        <time>2024-10-26T10:31:58.000Z</time>
      </trkpt>
      <trkpt lat="38.608179" lon="-122.282459">
        <ele>190.326487</ele>
        <time>2024-10-26T10:32:03.000Z</time>
      </trkpt>
      <trkpt lat="38.608636" lon="-122.282593">
        <ele>190.028094</ele>
        <time>2024-10-26T10:32:08.000Z</time>
      </trkpt>
      <trkpt lat="38.610343" lon="-122.28295">
        <ele>186.788147</ele>
        <time>2024-10-26T10:32:27.000Z</time>
      </trkpt>
      <trkpt lat="38.610501" lon="-122.282989">
        <ele>186.11379</ele>
        <time>2024-10-26T10:32:29.000Z</time>
      </trkpt>
      <trkpt lat="38.611924" lon="-122.283272">
        <ele>180.021812</ele>
        <time>2024-10-26T10:32:45.000Z</time>
      </trkpt>
      <trkpt lat="38.612215" lon="-122.283331">
        <ele>178.650802</ele>
        <time>2024-10-26T10:32:48.000Z</time>
      </trkpt>
      <trkpt lat="38.612469" lon="-122.283457">
        <ele>177.406304</ele>
        <time>2024-10-26T10:32:51.000Z</time>
      </trkpt>
      <trkpt lat="38.612583" lon="-122.283494">
        <ele>176.789694</ele>
        <time>2024-10-26T10:32:52.000Z</time>
      </trkpt>
      <trkpt lat="38.613024" lon="-122.283996">
        <ele>174.047124</ele>
        <time>2024-10-26T10:32:59.000Z</time>
      </trkpt>
      <trkpt lat="38.613166" lon="-122.284332">
        <ele>173.175722</ele>
        <time>2024-10-26T10:33:02.000Z</time>
      </trkpt>
      <trkpt lat="38.613595" lon="-122.285956">
        <ele>169.996521</ele>
        <time>2024-10-26T10:33:17.000Z</time>
      </trkpt>
      <trkpt lat="38.61433" lon="-122.287135">
        <ele>165.084216</ele>
        <time>2024-10-26T10:33:30.000Z</time>
      </trkpt>
      <trkpt lat="38.614935" lon="-122.288982">
        <ele>157.012317</ele>
        <time>2024-10-26T10:33:47.000Z</time>
      </trkpt>
      <trkpt lat="38.615193" lon="-122.289347">
        <ele>154.719289</ele>
        <time>2024-10-26T10:33:51.000Z</time>
      </trkpt>
      <trkpt lat="38.615473" lon="-122.289519">
        <ele>152.93161</ele>
        <time>2024-10-26T10:33:54.000Z</time>
      </trkpt>
      <trkpt lat="38.615771" lon="-122.28952">
        <ele>151.173144</ele>
        <time>2024-10-26T10:33:57.000Z</time>
      </trkpt>
      <trkpt lat="38.617906" lon="-122.289204">
        <ele>146.526105</ele>
        <time>2024-10-26T10:34:21.000Z</time>
      </trkpt>
      <trkpt lat="38.618034" lon="-122.289181">
        <ele>146.701865</ele>
        <time>2024-10-26T10:34:22.000Z</time>
      </trkpt>
      <trkpt lat="38.618277" lon="-122.289148">
        <ele>147.033212</ele>
        <time>2024-10-26T10:34:25.000Z</time>
      </trkpt>
      <trkpt lat="38.618505" lon="-122.289191">
        <ele>147.330407</ele>
        <time>2024-10-26T10:34:28.000Z</time>
      </trkpt>
      <trkpt lat="38.618708" lon="-122.289253">
        <ele>147.619873</ele>
        <time>2024-10-26T10:34:30.000Z</time>
      </trkpt>
      <trkpt lat="38.618934" lon="-122.289376">
        <ele>147.962584</ele>
        <time>2024-10-26T10:34:33.000Z</time>
      </trkpt>
      <trkpt lat="38.619575" lon="-122.289793">
        <ele>148.463549</ele>
        <time>2024-10-26T10:34:41.000Z</time>
      </trkpt>
      <trkpt lat="38.619828" lon="-122.289907">
        <ele>148.290427</ele>
        <time>2024-10-26T10:34:44.000Z</time>
      </trkpt>
      <trkpt lat="38.620033" lon="-122.289932">
        <ele>148.163582</ele>
        <time>2024-10-26T10:34:46.000Z</time>
      </trkpt>
      <trkpt lat="38.620299" lon="-122.289863">
        <ele>147.991603</ele>
        <time>2024-10-26T10:34:49.000Z</time>
      </trkpt>
      <trkpt lat="38.621721" lon="-122.289422">
        <ele>146.155026</ele>
        <time>2024-10-26T10:35:05.000Z</time>
      </trkpt>
      <trkpt lat="38.622109" lon="-122.289449">
        <ele>145.338179</ele>
        <time>2024-10-26T10:35:09.000Z</time>
      </trkpt>
      <trkpt lat="38.622318" lon="-122.289504">
        <ele>144.882888</ele>
        <time>2024-10-26T10:35:11.000Z</time>
      </trkpt>
      <trkpt lat="38.623502" lon="-122.290135">
        <ele>142.651963</ele>
        <time>2024-10-26T10:35:25.000Z</time>
      </trkpt>
      <trkpt lat="38.623761" lon="-122.290233">
        <ele>142.263789</ele>
        <time>2024-10-26T10:35:28.000Z</time>
      </trkpt>
      <trkpt lat="38.623982" lon="-122.290275">
        <ele>141.91949</ele>
        <time>2024-10-26T10:35:30.000Z</time>
      </trkpt>
      <trkpt lat="38.625275" lon="-122.290318">
        <ele>139.528535</ele>
        <time>2024-10-26T10:35:44.000Z</time>
      </trkpt>
      <trkpt lat="38.625562" lon="-122.290288">
        <ele>138.926466</ele>
        <time>2024-10-26T10:35:47.000Z</time>
      </trkpt>
      <trkpt lat="38.625715" lon="-122.290222">
        <ele>138.584584</ele>
        <time>2024-10-26T10:35:49.000Z</time>
      </trkpt>
      <trkpt lat="38.625939" lon="-122.29006">
        <ele>138.066083</ele>
        <time>2024-10-26T10:35:52.000Z</time>
      </trkpt>
      <trkpt lat="38.626187" lon="-122.289757">
        <ele>137.311837</ele>
        <time>2024-10-26T10:35:56.000Z</time>
      </trkpt>
      <trkpt lat="38.626301" lon="-122.289514">
        <ele>137.007697</ele>
        <time>2024-10-26T10:35:58.000Z</time>
      </trkpt>
      <trkpt lat="38.626163" lon="-122.289131">
        <ele>136.613655</ele>
        <time>2024-10-26T10:36:02.000Z</time>
      </trkpt>
      <trkpt lat="38.626155" lon="-122.289021">
        <ele>136.497975</ele>
        <time>2024-10-26T10:36:03.000Z</time>
      </trkpt>
      <trkpt lat="38.626069" lon="-122.288948">
        <ele>136.368699</ele>
        <time>2024-10-26T10:36:04.000Z</time>
      </trkpt>
      <trkpt lat="38.625987" lon="-122.288902">
        <ele>136.273419</ele>
        <time>2024-10-26T10:36:05.000Z</time>
      </trkpt>
      <trkpt lat="38.625844" lon="-122.288797">
        <ele>136.0513</ele>
        <time>2024-10-26T10:36:07.000Z</time>
      </trkpt>
      <trkpt lat="38.625514" lon="-122.288427">
        <ele>135.533244</ele>
        <time>2024-10-26T10:36:12.000Z</time>
      </trkpt>
      <trkpt lat="38.625087" lon="-122.287786">
        <ele>134.92438499</ele>
        <time>2024-10-26T10:36:19.000Z</time>
      </trkpt>
      <trkpt lat="38.624825" lon="-122.287557">
        <ele>134.63087113</ele>
        <time>2024-10-26T10:36:23.000Z</time>
      </trkpt>
      <trkpt lat="38.624724" lon="-122.287503">
        <ele>134.529605625</ele>
        <time>2024-10-26T10:36:24.000Z</time>
      </trkpt>
      <trkpt lat="38.624423" lon="-122.287385">
        <ele>134.238363103</ele>
        <time>2024-10-26T10:36:28.000Z</time>
      </trkpt>
      <trkpt lat="38.624107" lon="-122.287313">
        <ele>133.941415482</ele>
        <time>2024-10-26T10:36:32.000Z</time>
      </trkpt>
      <trkpt lat="38.623819" lon="-122.287224">
        <ele>133.667312701</ele>
        <time>2024-10-26T10:36:35.000Z</time>
      </trkpt>
    </trkseg>
  </trk>
</gpx>

<!--
Performance optimized by W3 Total Cache. Learn more: https://www.boldgrid.com/w3-total-cache/?utm_source=w3tc&utm_medium=footer_comment&utm_campaign=free_plugin

Page Caching using Disk: Enhanced{w3tc_pagecache_reject_reason} 

Served from: www.aquabike.world @ 2026-05-10 21:34:59 by W3 Total Cache
-->